createdAt,value
2018-10-19T00:00:14.459Z,0.00
2018-10-19T00:01:14.419Z,0.00
2018-10-19T00:02:14.384Z,0.00
2018-10-19T00:03:14.467Z,0.00
2018-10-19T00:04:14.315Z,0.00
2018-10-19T00:05:14.295Z,0.00
2018-10-19T00:06:14.243Z,0.00
2018-10-19T00:07:14.211Z,0.00
2018-10-19T00:08:14.185Z,0.00
2018-10-19T00:09:14.168Z,0.00
2018-10-19T00:10:14.109Z,0.00
2018-10-19T00:11:14.153Z,0.00
2018-10-19T00:12:14.033Z,0.00
2018-10-19T00:13:14.019Z,0.00
2018-10-19T00:14:13.966Z,0.00
2018-10-19T00:15:14.009Z,0.00
2018-10-19T00:16:13.896Z,0.00
2018-10-19T00:17:13.896Z,0.00
2018-10-19T00:18:13.822Z,0.00
2018-10-19T00:19:13.796Z,0.00
2018-10-19T00:20:13.753Z,0.00
2018-10-19T00:21:13.755Z,0.00
2018-10-19T00:22:13.679Z,0.00
2018-10-19T00:23:13.735Z,0.00
2018-10-19T00:24:13.621Z,0.00
2018-10-19T00:25:13.578Z,0.00
2018-10-19T00:26:13.538Z,0.00
2018-10-19T00:27:13.560Z,0.00
2018-10-19T00:28:13.476Z,0.00
2018-10-19T00:29:13.499Z,0.00
2018-10-19T00:30:13.398Z,0.00
2018-10-19T00:31:13.366Z,0.00
2018-10-19T00:32:13.329Z,0.00
2018-10-19T00:33:13.354Z,0.00
2018-10-19T00:34:13.263Z,0.00
2018-10-19T00:35:13.276Z,0.00
2018-10-19T00:36:13.185Z,0.00
2018-10-19T00:37:13.154Z,0.00
2018-10-19T00:38:13.115Z,0.00
2018-10-19T00:39:13.153Z,0.00
2018-10-19T00:40:13.051Z,0.00
2018-10-19T00:41:13.084Z,0.00
2018-10-19T00:42:12.972Z,0.00
2018-10-19T00:43:12.934Z,0.00
2018-10-19T00:44:12.901Z,0.00
2018-10-19T00:45:12.939Z,0.00
2018-10-19T00:46:12.833Z,0.00
2018-10-19T00:47:12.844Z,0.00
2018-10-19T00:48:12.759Z,0.00
2018-10-19T00:49:12.726Z,0.00
2018-10-19T00:50:12.699Z,0.00
2018-10-19T00:51:12.709Z,0.00
2018-10-19T00:52:12.621Z,0.00
2018-10-19T00:53:12.635Z,0.00
2018-10-19T00:54:12.549Z,0.00
2018-10-19T00:55:12.522Z,0.00
2018-10-19T00:56:12.477Z,0.00
2018-10-19T00:57:12.529Z,0.00
2018-10-19T00:58:12.411Z,0.00
2018-10-19T00:59:12.433Z,0.00
2018-10-19T01:00:12.345Z,0.00
2018-10-19T01:01:12.299Z,0.00
2018-10-19T01:02:12.264Z,0.00
2018-10-19T01:03:12.301Z,0.00
2018-10-19T01:04:12.194Z,0.00
2018-10-19T01:05:12.189Z,0.00
2018-10-19T01:06:12.130Z,0.00
2018-10-19T01:07:12.088Z,0.00
2018-10-19T01:08:12.053Z,0.00
2018-10-19T01:09:12.070Z,0.00
2018-10-19T01:10:11.979Z,0.00
2018-10-19T01:11:12.020Z,0.00
2018-10-19T01:12:11.936Z,0.00
2018-10-19T01:13:11.874Z,0.00
2018-10-19T01:14:11.837Z,0.00
2018-10-19T01:15:11.826Z,0.00
2018-10-19T01:16:11.776Z,0.00
2018-10-19T01:17:11.825Z,0.00
2018-10-19T01:18:11.696Z,0.00
2018-10-19T01:19:11.659Z,0.00
2018-10-19T01:20:11.670Z,0.00
2018-10-19T01:21:11.727Z,0.00
2018-10-19T01:22:11.554Z,0.00
2018-10-19T01:23:11.607Z,0.00
2018-10-19T01:24:11.483Z,0.00
2018-10-19T01:25:11.446Z,0.00
2018-10-19T01:26:11.419Z,0.00
2018-10-19T01:27:11.430Z,0.00
2018-10-19T01:28:11.344Z,0.00
2018-10-19T01:29:11.364Z,0.00
2018-10-19T01:30:11.270Z,0.00
2018-10-19T01:31:11.248Z,0.00
2018-10-19T01:32:11.204Z,0.00
2018-10-19T01:33:11.234Z,0.00
2018-10-19T01:34:11.130Z,0.00
2018-10-19T01:35:11.131Z,0.00
2018-10-19T01:36:11.078Z,0.00
2018-10-19T01:37:11.017Z,0.00
2018-10-19T01:38:10.989Z,0.00
2018-10-19T01:39:11.013Z,0.00
2018-10-19T01:40:10.917Z,0.00
2018-10-19T01:41:10.935Z,0.00
2018-10-19T01:42:10.854Z,0.00
2018-10-19T01:43:10.813Z,0.00
2018-10-19T01:44:10.773Z,0.00
2018-10-19T01:45:10.780Z,0.00
2018-10-19T01:46:10.702Z,0.00
2018-10-19T01:47:10.716Z,0.00
2018-10-19T01:48:10.637Z,0.00
2018-10-19T01:49:10.597Z,0.00
2018-10-19T01:50:10.571Z,0.00
2018-10-19T01:51:10.573Z,0.00
2018-10-19T01:52:10.503Z,0.00
2018-10-19T01:53:10.617Z,0.00
2018-10-19T01:54:10.420Z,0.00
2018-10-19T01:55:10.384Z,0.00
2018-10-19T01:56:10.349Z,0.00
2018-10-19T01:57:10.433Z,0.00
2018-10-19T01:58:10.286Z,0.00
2018-10-19T01:59:10.313Z,0.00
2018-10-19T02:00:10.207Z,0.00
2018-10-19T02:01:10.175Z,0.00
2018-10-19T02:02:10.160Z,0.00
2018-10-19T02:03:10.172Z,0.00
2018-10-19T02:04:10.066Z,0.00
2018-10-19T02:05:10.103Z,0.00
2018-10-19T02:06:09.994Z,0.00
2018-10-19T02:07:09.961Z,0.00
2018-10-19T02:08:09.938Z,0.00
2018-10-19T02:09:09.942Z,0.00
2018-10-19T02:10:11.485Z,0.00
2018-10-19T02:11:09.867Z,0.00
2018-10-19T02:12:09.784Z,0.00
2018-10-19T02:13:09.757Z,0.00
2018-10-19T02:14:09.712Z,0.00
2018-10-19T02:15:09.743Z,0.00
2018-10-19T02:16:09.641Z,0.00
2018-10-19T02:17:09.664Z,0.00
2018-10-19T02:18:09.581Z,0.00
2018-10-19T02:19:09.537Z,0.00
2018-10-19T02:20:09.507Z,0.00
2018-10-19T02:21:09.532Z,0.00
2018-10-19T02:22:09.436Z,0.00
2018-10-19T02:23:09.441Z,0.00
2018-10-19T02:24:09.363Z,0.00
2018-10-19T02:25:09.322Z,0.00
2018-10-19T02:26:09.288Z,0.00
2018-10-19T02:27:09.343Z,0.00
2018-10-19T02:28:09.225Z,0.00
2018-10-19T02:29:09.269Z,0.00
2018-10-19T02:30:09.149Z,0.00
2018-10-19T02:31:09.110Z,0.00
2018-10-19T02:32:09.080Z,0.00
2018-10-19T02:33:09.159Z,0.00
2018-10-19T02:34:09.004Z,0.00
2018-10-19T02:35:09.064Z,0.00
2018-10-19T02:36:08.934Z,0.00
2018-10-19T02:37:08.897Z,0.00
2018-10-19T02:38:08.865Z,0.00
2018-10-19T02:39:08.880Z,0.00
2018-10-19T02:40:08.789Z,0.00
2018-10-19T02:41:08.800Z,0.00
2018-10-19T02:42:08.721Z,0.00
2018-10-19T02:43:08.684Z,0.00
2018-10-19T02:44:08.664Z,0.00
2018-10-19T02:45:08.688Z,0.00
2018-10-19T02:46:08.578Z,0.00
2018-10-19T02:47:08.606Z,0.00
2018-10-19T02:48:08.536Z,0.00
2018-10-19T02:49:08.480Z,0.00
2018-10-19T02:50:08.438Z,0.00
2018-10-19T02:51:08.444Z,0.00
2018-10-19T02:52:08.365Z,0.00
2018-10-19T02:53:08.370Z,0.00
2018-10-19T02:54:08.317Z,0.00
2018-10-19T02:55:08.264Z,0.00
2018-10-19T02:56:08.223Z,0.00
2018-10-19T02:57:08.388Z,0.00
2018-10-19T02:58:08.152Z,0.00
2018-10-19T02:59:08.164Z,0.00
2018-10-19T03:00:08.089Z,0.00
2018-10-19T03:01:08.043Z,0.00
2018-10-19T03:02:08.008Z,0.00
2018-10-19T03:03:08.042Z,0.00
2018-10-19T03:04:07.940Z,0.00
2018-10-19T03:05:08.008Z,0.00
2018-10-19T03:06:07.864Z,0.00
2018-10-19T03:07:07.834Z,0.00
2018-10-19T03:08:07.796Z,0.00
2018-10-19T03:09:07.828Z,0.00
2018-10-19T03:10:07.741Z,0.00
2018-10-19T03:11:07.761Z,0.00
2018-10-19T03:12:07.653Z,0.00
2018-10-19T03:13:07.616Z,0.00
2018-10-19T03:14:07.582Z,0.00
2018-10-19T03:15:07.640Z,0.00
2018-10-19T03:16:07.516Z,0.00
2018-10-19T03:17:07.482Z,0.00
2018-10-19T03:18:07.444Z,0.00
2018-10-19T03:19:07.403Z,0.00
2018-10-19T03:20:07.374Z,0.00
2018-10-19T03:21:07.399Z,0.00
2018-10-19T03:22:07.295Z,0.00
2018-10-19T03:23:07.272Z,0.00
2018-10-19T03:24:07.224Z,0.00
2018-10-19T03:25:07.209Z,0.00
2018-10-19T03:26:07.152Z,0.00
2018-10-19T03:27:07.123Z,0.00
2018-10-19T03:28:07.077Z,0.00
2018-10-19T03:29:07.070Z,0.00
2018-10-19T03:30:07.010Z,0.00
2018-10-19T03:31:07.102Z,0.00
2018-10-19T03:32:06.949Z,0.00
2018-10-19T03:33:06.925Z,0.00
2018-10-19T03:34:06.865Z,0.00
2018-10-19T03:35:06.837Z,0.00
2018-10-19T03:36:06.805Z,0.00
2018-10-19T03:37:06.781Z,0.00
2018-10-19T03:38:06.728Z,0.00
2018-10-19T03:39:06.686Z,0.00
2018-10-19T03:40:06.648Z,0.00
2018-10-19T03:41:06.709Z,0.00
2018-10-19T03:42:06.578Z,0.00
2018-10-19T03:43:06.540Z,0.00
2018-10-19T03:44:06.501Z,0.00
2018-10-19T03:45:06.508Z,0.00
2018-10-19T03:46:06.453Z,0.00
2018-10-19T03:47:06.465Z,0.00
2018-10-19T03:48:06.358Z,0.00
2018-10-19T03:49:06.377Z,0.00
2018-10-19T03:50:06.287Z,0.00
2018-10-19T03:51:06.278Z,0.00
2018-10-19T03:52:06.224Z,0.00
2018-10-19T03:53:06.246Z,0.00
2018-10-19T03:54:06.143Z,0.00
2018-10-19T03:55:06.106Z,0.00
2018-10-19T03:56:06.069Z,0.00
2018-10-19T03:57:06.124Z,0.00
2018-10-19T03:58:05.999Z,0.00
2018-10-19T03:59:06.080Z,0.00
2018-10-19T04:00:05.927Z,0.00
2018-10-19T04:01:05.893Z,0.00
2018-10-19T04:02:05.870Z,0.00
2018-10-19T04:03:05.891Z,0.00
2018-10-19T04:04:05.783Z,0.00
2018-10-19T04:05:05.789Z,0.00
2018-10-19T04:06:05.708Z,0.00
2018-10-19T04:07:05.683Z,0.00
2018-10-19T04:08:05.638Z,0.00
2018-10-19T04:09:05.650Z,0.00
2018-10-19T04:10:05.560Z,0.00
2018-10-19T04:11:05.596Z,0.00
2018-10-19T04:12:05.505Z,0.00
2018-10-19T04:13:05.456Z,0.00
2018-10-19T04:14:05.421Z,0.00
2018-10-19T04:15:05.421Z,0.00
2018-10-19T04:16:05.353Z,0.00
2018-10-19T04:17:05.376Z,0.00
2018-10-19T04:18:05.273Z,0.00
2018-10-19T04:19:05.241Z,0.00
2018-10-19T04:20:05.204Z,0.00
2018-10-19T04:21:05.201Z,0.00
2018-10-19T04:22:05.150Z,0.00
2018-10-19T04:23:05.141Z,0.00
2018-10-19T04:24:05.062Z,0.00
2018-10-19T04:25:05.024Z,0.00
2018-10-19T04:26:04.994Z,0.00
2018-10-19T04:27:05.000Z,0.00
2018-10-19T04:28:04.929Z,0.00
2018-10-19T04:29:04.895Z,0.00
2018-10-19T04:30:04.842Z,0.00
2018-10-19T04:31:04.814Z,0.00
2018-10-19T04:32:04.774Z,0.00
2018-10-19T04:33:04.750Z,0.00
2018-10-19T04:34:04.701Z,0.00
2018-10-19T04:35:04.714Z,0.00
2018-10-19T04:36:04.627Z,0.00
2018-10-19T04:37:04.592Z,0.00
2018-10-19T04:38:04.568Z,0.00
2018-10-19T04:39:04.551Z,0.00
2018-10-19T04:40:04.488Z,0.00
2018-10-19T04:41:04.462Z,0.00
2018-10-19T04:42:04.614Z,0.00
2018-10-19T04:43:04.394Z,0.00
2018-10-19T04:44:04.338Z,0.00
2018-10-19T04:45:04.359Z,0.00
2018-10-19T04:46:04.273Z,0.00
2018-10-19T04:47:04.248Z,0.00
2018-10-19T04:48:04.199Z,0.00
2018-10-19T04:49:04.166Z,0.00
2018-10-19T04:50:04.123Z,0.00
2018-10-19T04:51:04.153Z,0.00
2018-10-19T04:52:04.057Z,0.00
2018-10-19T04:53:04.036Z,0.00
2018-10-19T04:54:03.990Z,0.00
2018-10-19T04:55:03.949Z,0.00
2018-10-19T04:56:03.903Z,0.00
2018-10-19T04:57:03.904Z,0.00
2018-10-19T04:58:03.838Z,0.00
2018-10-19T04:59:03.847Z,0.00
2018-10-19T05:00:03.762Z,0.00
2018-10-19T05:01:03.723Z,0.00
2018-10-19T05:02:03.696Z,0.00
2018-10-19T05:03:03.758Z,0.00
2018-10-19T05:04:03.632Z,0.00
2018-10-19T05:05:03.608Z,0.00
2018-10-19T05:06:03.675Z,0.00
2018-10-19T05:07:03.517Z,0.00
2018-10-19T05:08:03.483Z,0.00
2018-10-19T05:09:03.449Z,0.00
2018-10-19T05:10:03.401Z,0.00
2018-10-19T05:11:03.411Z,0.00
2018-10-19T05:12:03.331Z,0.00
2018-10-19T05:13:03.359Z,0.00
2018-10-19T05:14:03.286Z,0.00
2018-10-19T05:15:03.219Z,0.00
2018-10-19T05:16:03.189Z,0.00
2018-10-19T05:17:03.202Z,0.00
2018-10-19T05:18:03.106Z,0.00
2018-10-19T05:19:03.094Z,0.00
2018-10-19T05:20:03.081Z,0.00
2018-10-19T05:21:03.002Z,0.00
2018-10-19T05:22:02.987Z,0.00
2018-10-19T05:23:02.998Z,0.00
2018-10-19T05:24:02.909Z,0.00
2018-10-19T05:25:02.856Z,0.00
2018-10-19T05:26:02.923Z,0.00
2018-10-19T05:27:02.787Z,0.00
2018-10-19T05:28:02.746Z,0.00
2018-10-19T05:29:02.802Z,0.00
2018-10-19T05:30:02.675Z,4.00
2018-10-19T05:31:02.639Z,4.00
2018-10-19T05:32:02.700Z,0.00
2018-10-19T05:33:02.594Z,4.00
2018-10-19T05:34:02.525Z,0.00
2018-10-19T05:35:02.611Z,4.00
2018-10-19T05:36:02.457Z,4.00
2018-10-19T05:37:02.417Z,8.00
2018-10-19T05:38:02.433Z,4.00
2018-10-19T05:39:02.348Z,8.00
2018-10-19T05:40:02.321Z,8.00
2018-10-19T05:41:02.369Z,12.00
2018-10-19T05:42:02.240Z,12.00
2018-10-19T05:43:02.196Z,12.00
2018-10-19T05:44:02.179Z,16.00
2018-10-19T05:45:02.137Z,20.00
2018-10-19T05:46:02.090Z,20.00
2018-10-19T05:47:02.069Z,28.00
2018-10-19T05:48:02.021Z,28.00
2018-10-19T05:49:01.984Z,32.00
2018-10-19T05:50:02.088Z,36.00
2018-10-19T05:51:01.913Z,48.00
2018-10-19T05:52:01.895Z,48.00
2018-10-19T05:53:01.860Z,56.00
2018-10-19T05:54:01.799Z,64.00
2018-10-19T05:55:01.761Z,76.00
2018-10-19T05:56:01.761Z,84.00
2018-10-19T05:57:01.689Z,92.00
2018-10-19T05:58:01.654Z,100.00
2018-10-19T05:59:01.628Z,112.00
2018-10-19T06:00:01.591Z,120.00
2018-10-19T06:01:01.550Z,132.00
2018-10-19T06:02:01.548Z,144.00
2018-10-19T06:03:01.469Z,156.00
2018-10-19T06:04:01.435Z,168.00
2018-10-19T06:05:01.434Z,180.00
2018-10-19T06:06:01.373Z,192.00
2018-10-19T06:07:01.323Z,208.00
2018-10-19T06:08:01.300Z,224.00
2018-10-19T06:09:01.252Z,240.00
2018-10-19T06:10:01.213Z,260.00
2018-10-19T06:11:01.204Z,280.00
2018-10-19T06:12:01.166Z,300.00
2018-10-19T06:13:01.105Z,324.00
2018-10-19T06:14:01.122Z,340.00
2018-10-19T06:15:01.039Z,364.00
2018-10-19T06:16:01.004Z,388.00
2018-10-19T06:17:01.034Z,408.00
2018-10-19T06:18:00.921Z,428.00
2018-10-19T06:19:00.888Z,452.00
2018-10-19T06:20:00.852Z,472.00
2018-10-19T06:21:00.845Z,496.00
2018-10-19T06:22:00.779Z,520.00
2018-10-19T06:23:00.752Z,548.00
2018-10-19T06:24:00.704Z,572.00
2018-10-19T06:25:00.665Z,588.00
2018-10-19T06:26:00.705Z,608.00
2018-10-19T06:27:00.648Z,628.00
2018-10-19T06:28:00.557Z,656.00
2018-10-19T06:29:00.572Z,684.00
2018-10-19T06:30:00.483Z,712.00
2018-10-19T06:31:00.452Z,744.00
2018-10-19T06:32:00.459Z,776.00
2018-10-19T06:33:00.380Z,788.00
2018-10-19T06:34:00.348Z,812.00
2018-10-19T06:35:00.382Z,848.00
2018-10-19T06:36:00.269Z,876.00
2018-10-19T06:37:00.235Z,912.00
2018-10-19T06:38:00.210Z,952.00
2018-10-19T06:39:00.155Z,968.00
2018-10-19T06:40:00.126Z,980.00
2018-10-19T06:41:00.086Z,1000.00
2018-10-19T06:42:00.058Z,1020.00
2018-10-19T06:43:00.012Z,1040.00
2018-10-19T06:43:59.978Z,1052.00
2018-10-19T06:44:59.940Z,1048.00
2018-10-19T06:45:59.901Z,1076.00
2018-10-19T06:46:59.892Z,1096.00
2018-10-19T06:47:59.884Z,1100.00
2018-10-19T06:49:00.625Z,1112.00
2018-10-19T06:49:59.791Z,1140.00
2018-10-19T06:50:59.717Z,1164.00
2018-10-19T06:51:59.701Z,1176.00
2018-10-19T06:52:59.654Z,1172.00
2018-10-19T06:53:59.607Z,1136.00
2018-10-19T06:54:59.575Z,1108.00
2018-10-19T06:55:59.555Z,1144.00
2018-10-19T06:56:59.514Z,1200.00
2018-10-19T06:57:59.486Z,1244.00
2018-10-19T06:58:59.460Z,1300.00
2018-10-19T06:59:59.398Z,1340.00
2018-10-19T07:00:59.354Z,1340.00
2018-10-19T07:01:59.346Z,1364.00
2018-10-19T07:02:59.295Z,1388.00
2018-10-19T07:03:59.246Z,1388.00
2018-10-19T07:04:59.216Z,1368.00
2018-10-19T07:05:59.186Z,1372.00
2018-10-19T07:06:59.138Z,1392.00
2018-10-19T07:07:59.206Z,1400.00
2018-10-19T07:08:59.068Z,1364.00
2018-10-19T07:09:59.028Z,1368.00
2018-10-19T07:10:59.044Z,1392.00
2018-10-19T07:11:59.004Z,1404.00
2018-10-19T07:12:58.930Z,1396.00
2018-10-19T07:13:58.887Z,1380.00
2018-10-19T07:14:58.849Z,1384.00
2018-10-19T07:15:58.865Z,1396.00
2018-10-19T07:16:58.786Z,1420.00
2018-10-19T07:17:58.747Z,1440.00
2018-10-19T07:18:58.717Z,1428.00
2018-10-19T07:19:58.671Z,1428.00
2018-10-19T07:20:58.640Z,1432.00
2018-10-19T07:21:58.595Z,1444.00
2018-10-19T07:22:58.570Z,1456.00
2018-10-19T07:23:58.521Z,1468.00
2018-10-19T07:24:58.486Z,1484.00
2018-10-19T07:25:58.504Z,1484.00
2018-10-19T07:26:58.413Z,1484.00
2018-10-19T07:27:58.393Z,1492.00
2018-10-19T07:28:58.348Z,1528.00
2018-10-19T07:29:58.308Z,1576.00
2018-10-19T07:30:58.270Z,1620.00
2018-10-19T07:31:58.252Z,1648.00
2018-10-19T07:32:58.197Z,1660.00
2018-10-19T07:33:58.173Z,1668.00
2018-10-19T07:34:58.129Z,1656.00
2018-10-19T07:35:58.094Z,1624.00
2018-10-19T07:36:58.066Z,1616.00
2018-10-19T07:37:58.023Z,1616.00
2018-10-19T07:38:57.992Z,1632.00
2018-10-19T07:39:57.949Z,1660.00
2018-10-19T07:40:57.933Z,1696.00
2018-10-19T07:41:57.879Z,1708.00
2018-10-19T07:42:57.843Z,1700.00
2018-10-19T07:43:57.813Z,1688.00
2018-10-19T07:44:57.769Z,1680.00
2018-10-19T07:45:57.728Z,1692.00
2018-10-19T07:46:57.700Z,1720.00
2018-10-19T07:47:57.846Z,1764.00
2018-10-19T07:48:57.635Z,1776.00
2018-10-19T07:49:57.591Z,1760.00
2018-10-19T07:50:57.549Z,1752.00
2018-10-19T07:51:57.515Z,1764.00
2018-10-19T07:52:57.533Z,1800.00
2018-10-19T07:53:57.479Z,1824.00
2018-10-19T07:54:57.408Z,1800.00
2018-10-19T07:55:57.414Z,1764.00
2018-10-19T07:56:57.333Z,1752.00
2018-10-19T07:57:57.301Z,1752.00
2018-10-19T07:58:57.287Z,1784.00
2018-10-19T07:59:57.231Z,1844.00
2018-10-19T08:00:57.193Z,1872.00
2018-10-19T08:01:57.161Z,1872.00
2018-10-19T08:02:57.122Z,1868.00
2018-10-19T08:03:57.104Z,1860.00
2018-10-19T08:04:57.079Z,1876.00
2018-10-19T08:05:57.014Z,1896.00
2018-10-19T08:06:56.980Z,1900.00
2018-10-19T08:07:56.956Z,1892.00
2018-10-19T08:08:56.906Z,1888.00
2018-10-19T08:09:56.876Z,1880.00
2018-10-19T08:10:56.857Z,1888.00
2018-10-19T08:11:56.794Z,1904.00
2018-10-19T08:12:56.758Z,1928.00
2018-10-19T08:13:56.742Z,1952.00
2018-10-19T08:14:56.697Z,1976.00
2018-10-19T08:15:56.655Z,1984.00
2018-10-19T08:16:56.670Z,1992.00
2018-10-19T08:17:56.584Z,2008.00
2018-10-19T08:18:56.549Z,2000.00
2018-10-19T08:19:56.566Z,1996.00
2018-10-19T08:20:56.541Z,1980.00
2018-10-19T08:21:56.439Z,1956.00
2018-10-19T08:22:56.467Z,1948.00
2018-10-19T08:23:56.373Z,1952.00
2018-10-19T08:24:56.357Z,1964.00
2018-10-19T08:25:56.352Z,1992.00
2018-10-19T08:26:56.270Z,2028.00
2018-10-19T08:27:56.233Z,2064.00
2018-10-19T08:28:56.255Z,2064.00
2018-10-19T08:29:56.156Z,2092.00
2018-10-19T08:30:56.130Z,2060.00
2018-10-19T08:31:56.104Z,2048.00
2018-10-19T08:32:56.058Z,2056.00
2018-10-19T08:33:56.014Z,2060.00
2018-10-19T08:34:55.988Z,2032.00
2018-10-19T08:35:55.952Z,2028.00
2018-10-19T08:36:55.910Z,2072.00
2018-10-19T08:37:55.873Z,2096.00
2018-10-19T08:38:55.841Z,2128.00
2018-10-19T08:39:55.803Z,2132.00
2018-10-19T08:40:55.779Z,2168.00
2018-10-19T08:41:55.732Z,2196.00
2018-10-19T08:42:55.740Z,2248.00
2018-10-19T08:43:55.661Z,2300.00
2018-10-19T08:44:55.634Z,2332.00
2018-10-19T08:45:55.601Z,2308.00
2018-10-19T08:46:55.602Z,2280.00
2018-10-19T08:47:55.526Z,2264.00
2018-10-19T08:48:55.513Z,2252.00
2018-10-19T08:49:55.449Z,2232.00
2018-10-19T08:50:55.471Z,2232.00
2018-10-19T08:51:55.380Z,2232.00
2018-10-19T08:52:55.383Z,2232.00
2018-10-19T08:53:55.315Z,2224.00
2018-10-19T08:54:55.322Z,2220.00
2018-10-19T08:55:55.242Z,2220.00
2018-10-19T08:56:55.224Z,2212.00
2018-10-19T08:57:55.227Z,2208.00
2018-10-19T08:58:55.144Z,2204.00
2018-10-19T08:59:55.107Z,2200.00
2018-10-19T09:00:55.068Z,2200.00
2018-10-19T09:01:55.041Z,2200.00
2018-10-19T09:02:55.007Z,2200.00
2018-10-19T09:03:55.009Z,2200.00
2018-10-19T09:04:54.993Z,2192.00
2018-10-19T09:05:54.916Z,2188.00
2018-10-19T09:06:54.866Z,2192.00
2018-10-19T09:07:54.823Z,2188.00
2018-10-19T09:08:54.791Z,2172.00
2018-10-19T09:09:54.757Z,2156.00
2018-10-19T09:10:54.737Z,2156.00
2018-10-19T09:11:54.803Z,2156.00
2018-10-19T09:12:54.699Z,2152.00
2018-10-19T09:13:54.616Z,2144.00
2018-10-19T09:14:54.611Z,2140.00
2018-10-19T09:15:54.547Z,2132.00
2018-10-19T09:16:54.526Z,2116.00
2018-10-19T09:17:54.479Z,2108.00
2018-10-19T09:18:54.444Z,2104.00
2018-10-19T09:19:54.411Z,2104.00
2018-10-19T09:20:54.380Z,2096.00
2018-10-19T09:21:54.351Z,2088.00
2018-10-19T09:22:54.349Z,2092.00
2018-10-19T09:23:54.270Z,2084.00
2018-10-19T09:24:54.243Z,2080.00
2018-10-19T09:25:54.200Z,2076.00
2018-10-19T09:26:54.212Z,2068.00
2018-10-19T09:27:54.136Z,2060.00
2018-10-19T09:28:54.108Z,2056.00
2018-10-19T09:29:54.065Z,2048.00
2018-10-19T09:30:54.032Z,2036.00
2018-10-19T09:31:54.007Z,2020.00
2018-10-19T09:32:53.964Z,2020.00
2018-10-19T09:33:53.929Z,2016.00
2018-10-19T09:34:53.912Z,2008.00
2018-10-19T09:35:53.882Z,2004.00
2018-10-19T09:36:53.855Z,2004.00
2018-10-19T09:37:53.789Z,2000.00
2018-10-19T09:38:53.801Z,1996.00
2018-10-19T09:39:53.729Z,2000.00
2018-10-19T09:40:53.715Z,2004.00
2018-10-19T09:41:53.712Z,2004.00
2018-10-19T09:42:53.671Z,2012.00
2018-10-19T09:43:53.588Z,2012.00
2018-10-19T09:44:53.556Z,2012.00
2018-10-19T09:45:53.520Z,2016.00
2018-10-19T09:46:53.545Z,2020.00
2018-10-19T09:47:53.451Z,2024.00
2018-10-19T09:48:53.455Z,2024.00
2018-10-19T09:49:53.382Z,2024.00
2018-10-19T09:50:53.352Z,2032.00
2018-10-19T09:51:53.337Z,2032.00
2018-10-19T09:52:53.314Z,2032.00
2018-10-19T09:53:53.247Z,2040.00
2018-10-19T09:54:53.215Z,2036.00
2018-10-19T09:55:53.185Z,2032.00
2018-10-19T09:56:53.153Z,2036.00
2018-10-19T09:57:53.119Z,2040.00
2018-10-19T09:58:53.120Z,2048.00
2018-10-19T09:59:53.046Z,2060.00
2018-10-19T10:00:53.059Z,2072.00
2018-10-19T10:01:53.036Z,2072.00
2018-10-19T10:02:52.962Z,2080.00
2018-10-19T10:03:52.914Z,2088.00
2018-10-19T10:04:52.886Z,2088.00
2018-10-19T10:05:52.845Z,2088.00
2018-10-19T10:06:52.845Z,2088.00
2018-10-19T10:07:52.831Z,2104.00
2018-10-19T10:08:52.787Z,2112.00
2018-10-19T10:09:52.712Z,2120.00
2018-10-19T10:10:52.678Z,2124.00
2018-10-19T10:11:52.644Z,2120.00
2018-10-19T10:12:52.658Z,2120.00
2018-10-19T10:13:52.575Z,2112.00
2018-10-19T10:14:52.594Z,2112.00
2018-10-19T10:15:52.537Z,2108.00
2018-10-19T10:16:52.489Z,2108.00
2018-10-19T10:17:52.448Z,2104.00
2018-10-19T10:18:52.460Z,2092.00
2018-10-19T10:19:52.378Z,2092.00
2018-10-19T10:20:52.347Z,2084.00
2018-10-19T10:21:52.341Z,2068.00
2018-10-19T10:22:52.285Z,2072.00
2018-10-19T10:23:52.242Z,2076.00
2018-10-19T10:24:52.259Z,2080.00
2018-10-19T10:25:52.174Z,2072.00
2018-10-19T10:26:52.142Z,2056.00
2018-10-19T10:27:52.123Z,2036.00
2018-10-19T10:28:52.077Z,2024.00
2018-10-19T10:29:52.046Z,2024.00
2018-10-19T10:30:52.013Z,2028.00
2018-10-19T10:31:51.977Z,2044.00
2018-10-19T10:32:51.942Z,2056.00
2018-10-19T10:33:51.919Z,2068.00
2018-10-19T10:34:51.875Z,2076.00
2018-10-19T10:35:51.844Z,2088.00
2018-10-19T10:36:51.808Z,2104.00
2018-10-19T10:37:51.775Z,2132.00
2018-10-19T10:38:51.795Z,2168.00
2018-10-19T10:39:51.724Z,2208.00
2018-10-19T10:40:51.681Z,2236.00
2018-10-19T10:41:51.645Z,2268.00
2018-10-19T10:42:51.614Z,2304.00
2018-10-19T10:43:51.589Z,2336.00
2018-10-19T10:44:51.548Z,2356.00
2018-10-19T10:45:51.515Z,2372.00
2018-10-19T10:46:51.510Z,2388.00
2018-10-19T10:47:51.448Z,2396.00
2018-10-19T10:48:51.429Z,2400.00
2018-10-19T10:49:51.384Z,2416.00
2018-10-19T10:50:51.353Z,2436.00
2018-10-19T10:51:51.317Z,2452.00
2018-10-19T10:52:51.286Z,2476.00
2018-10-19T10:53:51.260Z,2496.00
2018-10-19T10:54:51.219Z,2500.00
2018-10-19T10:55:51.184Z,2520.00
2018-10-19T10:56:51.159Z,2536.00
2018-10-19T10:57:51.123Z,2548.00
2018-10-19T10:58:51.100Z,2552.00
2018-10-19T10:59:51.057Z,2552.00
2018-10-19T11:00:51.023Z,2568.00
2018-10-19T11:01:51.002Z,2580.00
2018-10-19T11:02:51.168Z,2608.00
2018-10-19T11:03:50.934Z,2636.00
2018-10-19T11:04:50.893Z,2672.00
2018-10-19T11:05:50.861Z,2708.00
2018-10-19T11:06:50.831Z,2736.00
2018-10-19T11:07:50.799Z,2760.00
2018-10-19T11:08:50.773Z,2780.00
2018-10-19T11:09:50.731Z,2796.00
2018-10-19T11:10:50.700Z,2808.00
2018-10-19T11:11:50.668Z,2820.00
2018-10-19T11:12:50.636Z,2848.00
2018-10-19T11:13:50.616Z,2872.00
2018-10-19T11:14:50.572Z,2888.00
2018-10-19T11:15:50.543Z,2908.00
2018-10-19T11:16:50.508Z,2924.00
2018-10-19T11:17:50.477Z,2936.00
2018-10-19T11:18:50.451Z,2952.00
2018-10-19T11:19:50.412Z,2960.00
2018-10-19T11:20:50.380Z,2964.00
2018-10-19T11:21:50.348Z,2968.00
2018-10-19T11:22:50.326Z,2988.00
2018-10-19T11:23:50.338Z,2996.00
2018-10-19T11:24:50.257Z,3004.00
2018-10-19T11:25:50.221Z,3008.00
2018-10-19T11:26:50.190Z,3008.00
2018-10-19T11:27:50.161Z,3016.00
2018-10-19T11:28:50.134Z,3012.00
2018-10-19T11:29:50.092Z,3012.00
2018-10-19T11:30:50.063Z,3016.00
2018-10-19T11:31:50.031Z,3012.00
2018-10-19T11:32:49.999Z,3020.00
2018-10-19T11:33:49.984Z,3024.00
2018-10-19T11:34:49.936Z,3028.00
2018-10-19T11:35:49.905Z,3032.00
2018-10-19T11:36:49.885Z,3028.00
2018-10-19T11:37:49.894Z,3024.00
2018-10-19T11:38:49.811Z,3016.00
2018-10-19T11:39:49.786Z,3004.00
2018-10-19T11:40:49.752Z,2984.00
2018-10-19T11:41:49.722Z,2972.00
2018-10-19T11:42:49.695Z,2936.00
2018-10-19T11:43:49.654Z,2912.00
2018-10-19T11:44:49.630Z,2904.00
2018-10-19T11:45:49.594Z,2896.00
2018-10-19T11:46:49.560Z,2876.00
2018-10-19T11:47:49.550Z,2860.00
2018-10-19T11:48:49.556Z,2836.00
2018-10-19T11:49:49.559Z,2820.00
2018-10-19T11:50:49.434Z,2792.00
2018-10-19T11:51:49.403Z,2760.00
2018-10-19T11:52:49.376Z,2728.00
2018-10-19T11:53:49.339Z,2680.00
2018-10-19T11:54:49.326Z,2636.00
2018-10-19T11:55:49.279Z,2628.00
2018-10-19T11:56:49.248Z,2604.00
2018-10-19T11:57:49.215Z,2592.00
2018-10-19T11:58:49.187Z,2568.00
2018-10-19T11:59:49.168Z,2536.00
2018-10-19T12:00:49.124Z,2508.00
2018-10-19T12:01:49.087Z,2488.00
2018-10-19T12:02:49.060Z,2464.00
2018-10-19T12:03:49.029Z,2444.00
2018-10-19T12:04:49.004Z,2412.00
2018-10-19T12:05:48.970Z,2384.00
2018-10-19T12:06:48.931Z,2364.00
2018-10-19T12:07:48.907Z,2344.00
2018-10-19T12:08:48.873Z,2336.00
2018-10-19T12:09:48.856Z,2324.00
2018-10-19T12:10:48.907Z,2312.00
2018-10-19T12:11:48.778Z,2296.00
2018-10-19T12:12:48.745Z,2284.00
2018-10-19T12:13:48.715Z,2284.00
2018-10-19T12:14:48.684Z,2276.00
2018-10-19T12:15:48.664Z,2260.00
2018-10-19T12:16:48.713Z,2248.00
2018-10-19T12:17:48.588Z,2240.00
2018-10-19T12:18:48.559Z,2240.00
2018-10-19T12:19:48.529Z,2240.00
2018-10-19T12:20:48.535Z,2220.00
2018-10-19T12:21:48.464Z,2184.00
2018-10-19T12:22:48.435Z,2204.00
2018-10-19T12:23:48.402Z,2220.00
2018-10-19T12:24:48.371Z,2216.00
2018-10-19T12:25:48.347Z,2216.00
2018-10-19T12:26:48.309Z,2252.00
2018-10-19T12:27:48.279Z,2276.00
2018-10-19T12:28:48.250Z,2300.00
2018-10-19T12:29:48.214Z,2316.00
2018-10-19T12:30:48.191Z,2336.00
2018-10-19T12:31:48.151Z,2348.00
2018-10-19T12:32:48.122Z,2360.00
2018-10-19T12:33:48.090Z,2364.00
2018-10-19T12:34:48.060Z,2376.00
2018-10-19T12:35:48.040Z,2388.00
2018-10-19T12:36:47.995Z,2404.00
2018-10-19T12:37:47.966Z,2424.00
2018-10-19T12:38:47.943Z,2436.00